createdAt,value
2023-10-23T00:01:41.263Z,96373.06
2023-10-23T00:06:35.737Z,96374.97
2023-10-23T00:11:31.494Z,96373.88
2023-10-23T00:16:24.032Z,96381.13
2023-10-23T00:21:24.385Z,96381.25
2023-10-23T00:26:16.552Z,96401.84
2023-10-23T00:31:08.508Z,96403.78
2023-10-23T00:36:00.440Z,96396.84
2023-10-23T00:40:52.547Z,96369.88
2023-10-23T00:45:56.620Z,96371.25
2023-10-23T00:50:50.443Z,96375.69
2023-10-23T00:55:44.371Z,96375.56
2023-10-23T01:00:37.172Z,96394.03
2023-10-23T01:05:29.969Z,96397.06
2023-10-23T01:15:28.716Z,96389.38
2023-10-23T01:20:21.886Z,96396.56
2023-10-23T01:25:21.955Z,96398.38
2023-10-23T01:30:13.983Z,96393.13
2023-10-23T01:35:07.557Z,96390.38
2023-10-23T01:39:59.650Z,96379.81
2023-10-23T01:44:51.652Z,96369.34
2023-10-23T01:49:53.424Z,96370.69
2023-10-23T01:54:45.874Z,96367.47
2023-10-23T01:59:38.472Z,96355.53
2023-10-23T02:04:34.308Z,96358.09
2023-10-23T02:09:26.612Z,96347.41
2023-10-23T02:14:19.450Z,96357.09
2023-10-23T02:19:11.298Z,96359.81
2023-10-23T02:24:03.887Z,96352.88
2023-10-23T02:28:56.911Z,96352.88
2023-10-23T02:33:48.696Z,96354.22
2023-10-23T02:38:40.725Z,96356.53
2023-10-23T02:43:32.591Z,96356.97
2023-10-23T02:48:24.432Z,96352.63
2023-10-23T02:53:16.343Z,96347.41
2023-10-23T02:58:08.109Z,96352.28
2023-10-23T03:02:59.888Z,96347.28
2023-10-23T03:07:51.925Z,96356.31
2023-10-23T03:12:47.526Z,96351.78
2023-10-23T03:17:39.901Z,96350.50
2023-10-23T03:22:33.728Z,96358.22
2023-10-23T03:27:29.171Z,96349.00
2023-10-23T03:32:21.317Z,96342.19
2023-10-23T03:37:13.562Z,96337.06
2023-10-23T03:42:05.821Z,96335.25
2023-10-23T03:46:58.283Z,96341.75
2023-10-23T03:51:50.162Z,96336.63
2023-10-23T03:56:42.462Z,96328.09
2023-10-23T04:01:34.761Z,96313.53
2023-10-23T04:06:27.781Z,96308.63
2023-10-23T04:11:20.040Z,96317.66
2023-10-23T04:16:13.084Z,96316.84
2023-10-23T04:21:08.564Z,96305.34
2023-10-23T04:26:02.789Z,96305.00
2023-10-23T04:30:57.565Z,96321.28
2023-10-23T04:35:58.820Z,96309.81
2023-10-23T04:40:51.925Z,96296.50
2023-10-23T04:45:51.899Z,96301.50
2023-10-23T04:50:44.206Z,96305.72
2023-10-23T04:55:39.697Z,96292.38
2023-10-23T05:11:15.025Z,96288.75
2023-10-23T05:16:11.790Z,96282.50
2023-10-23T05:21:12.280Z,96276.03
2023-10-23T05:31:11.175Z,96292.97
2023-10-23T05:36:10.544Z,96279.66
2023-10-23T05:41:03.475Z,96283.28
2023-10-23T05:45:57.244Z,96278.28
2023-10-23T06:01:17.859Z,96278.19
2023-10-23T06:06:09.786Z,96277.75
2023-10-23T06:11:04.508Z,96277.75
2023-10-23T06:16:04.580Z,96268.84
2023-10-23T06:21:05.014Z,96277.94
2023-10-23T06:31:16.055Z,96256.44
2023-10-23T06:36:09.409Z,96261.88
2023-10-23T06:41:08.796Z,96258.41
2023-10-23T06:46:02.959Z,96267.56
2023-10-23T06:56:09.990Z,96296.53
2023-10-23T07:01:09.874Z,96298.53
2023-10-23T07:06:09.774Z,96305.31
2023-10-23T07:11:02.061Z,96315.34
2023-10-23T07:15:53.964Z,96318.50
2023-10-23T07:21:06.779Z,96324.41
2023-10-23T07:26:28.423Z,96310.66
2023-10-23T07:31:21.046Z,96315.19
2023-10-23T07:36:14.965Z,96322.38
2023-10-23T07:41:07.455Z,96334.94
2023-10-23T07:46:15.457Z,96328.81
2023-10-23T07:56:17.179Z,96342.16
2023-10-23T08:01:17.758Z,96337.00
2023-10-23T08:06:19.138Z,96333.84
2023-10-23T08:11:14.925Z,96335.19
2023-10-23T08:16:07.517Z,96325.44
2023-10-23T08:20:59.556Z,96316.81
2023-10-23T08:25:51.395Z,96319.56
2023-10-23T08:30:46.588Z,96314.34
2023-10-23T08:35:38.839Z,96322.84
2023-10-23T08:40:30.762Z,96323.28
2023-10-23T08:45:24.119Z,96322.53
2023-10-23T08:50:16.549Z,96335.69
2023-10-23T08:55:17.320Z,96338.56
2023-10-23T09:00:10.229Z,96351.97
2023-10-23T09:05:02.988Z,96350.78
2023-10-23T09:10:04.900Z,96371.13
2023-10-23T09:14:56.654Z,96377.06
2023-10-23T09:19:49.335Z,96384.81
2023-10-23T09:24:42.964Z,96377.34
2023-10-23T09:29:36.339Z,96372.31
2023-10-23T09:34:30.216Z,96366.53
2023-10-23T09:39:24.002Z,96369.41
2023-10-23T09:44:18.010Z,96353.00
2023-10-23T09:59:43.169Z,96308.97
2023-10-23T10:15:56.985Z,96278.31
2023-10-23T10:20:56.945Z,96316.72
2023-10-23T10:46:47.864Z,96301.91
2023-10-23T11:12:51.003Z,96291.47
2023-10-23T11:17:55.362Z,96290.69
2023-10-23T11:38:40.767Z,96163.13
2023-10-23T11:43:34.716Z,96198.97
2023-10-23T11:58:50.828Z,96158.91
2023-10-23T12:03:42.912Z,96160.94
2023-10-23T12:08:36.956Z,96143.41
2023-10-23T12:13:31.112Z,96131.91
2023-10-23T12:18:29.897Z,96122.13
2023-10-23T12:23:22.535Z,96120.03
2023-10-23T12:33:35.494Z,96098.47
2023-10-23T12:38:29.964Z,96080.75
2023-10-23T12:43:21.741Z,96074.22
2023-10-23T12:48:13.862Z,96063.69
2023-10-23T12:53:11.008Z,96046.81
2023-10-23T12:58:04.959Z,96025.47
2023-10-23T13:08:04.778Z,96003.44
2023-10-23T13:12:56.792Z,96009.25
2023-10-23T13:17:49.549Z,96012.59
2023-10-23T13:22:41.401Z,95998.75
2023-10-23T13:27:39.491Z,96000.19
2023-10-23T13:32:31.463Z,95979.16
2023-10-23T13:37:23.694Z,95966.25
2023-10-23T13:52:37.000Z,95925.69
2023-10-23T14:02:34.583Z,95912.59
2023-10-23T14:07:27.118Z,95923.19
2023-10-23T14:17:28.297Z,95887.81
2023-10-23T14:22:21.948Z,95877.22
2023-10-23T14:32:23.487Z,95869.69
2023-10-23T14:52:50.808Z,95832.03
2023-10-23T15:23:21.337Z,95790.53
2023-10-23T15:43:45.556Z,95805.94
2023-10-23T15:48:38.651Z,95790.53
2023-10-23T15:53:38.019Z,95789.66
2023-10-23T16:19:09.969Z,95772.03
2023-10-23T16:29:13.094Z,95772.75
2023-10-23T16:39:14.968Z,95779.31
2023-10-23T16:44:07.998Z,95752.41
2023-10-23T16:49:02.913Z,95767.94
2023-10-23T16:53:56.907Z,95753.81
2023-10-23T16:58:58.289Z,95746.94
2023-10-23T17:03:53.758Z,95753.13
2023-10-23T17:14:04.458Z,95751.34
2023-10-23T17:18:58.928Z,95745.88
2023-10-23T17:23:51.992Z,95734.13
2023-10-23T17:28:47.332Z,95727.03
2023-10-23T17:33:40.412Z,95741.25
2023-10-23T17:38:32.933Z,95739.16
2023-10-23T17:43:25.727Z,95732.88
2023-10-23T17:48:18.349Z,95733.94
2023-10-23T17:53:10.104Z,95718.94
2023-10-23T17:58:02.653Z,95705.72
2023-10-23T18:02:58.137Z,95721.81
2023-10-23T18:07:58.589Z,95728.13
2023-10-23T18:12:55.650Z,95718.66
2023-10-23T18:22:58.059Z,95717.09
2023-10-23T18:27:50.156Z,95712.63
2023-10-23T18:32:46.097Z,95707.34
2023-10-23T18:37:40.667Z,95717.59
2023-10-23T18:42:35.266Z,95727.59
2023-10-23T18:47:29.218Z,95717.34
2023-10-23T18:52:21.080Z,95720.50
2023-10-23T18:57:14.567Z,95735.25
2023-10-23T19:07:41.851Z,95735.28
2023-10-23T19:12:34.461Z,95731.31
2023-10-23T19:17:39.758Z,95750.78
2023-10-23T19:22:35.423Z,95781.59
2023-10-23T19:27:27.408Z,95798.94
2023-10-23T19:32:22.592Z,95818.97
2023-10-23T19:42:26.638Z,95821.31
2023-10-23T19:47:19.732Z,95830.81
2023-10-23T19:52:15.379Z,95833.97
2023-10-23T19:57:11.011Z,95848.19
2023-10-23T20:02:05.336Z,95841.88
2023-10-23T20:06:58.257Z,95857.66
2023-10-23T20:11:57.589Z,95855.25
2023-10-23T20:16:57.904Z,95855.25
2023-10-23T20:21:50.917Z,95851.84
2023-10-23T20:26:43.049Z,95879.75
2023-10-23T20:31:37.440Z,95877.13
2023-10-23T20:36:33.271Z,95876.31
2023-10-23T20:41:25.258Z,95889.75
2023-10-23T20:46:18.319Z,95904.72
2023-10-23T20:51:14.897Z,95905.53
2023-10-23T20:56:07.429Z,95912.66
2023-10-23T21:01:09.206Z,95912.66
2023-10-23T21:11:12.638Z,95911.09
2023-10-23T21:16:09.018Z,95906.84
2023-10-23T21:21:01.448Z,95893.94
2023-10-23T21:30:59.750Z,95883.34
2023-10-23T21:41:00.581Z,95910.66
2023-10-23T21:46:09.393Z,95910.03
2023-10-23T21:57:19.053Z,95886.28
2023-10-23T22:01:36.556Z,95888.34
2023-10-23T22:06:29.033Z,95907.25
2023-10-23T22:11:21.155Z,95902.75
2023-10-23T22:16:14.791Z,95906.75
2023-10-23T22:21:07.069Z,95929.81
2023-10-23T22:26:00.922Z,95906.88
2023-10-23T22:30:53.958Z,95896.00
2023-10-23T22:35:45.775Z,95919.19
2023-10-23T22:40:37.930Z,95911.97
2023-10-23T22:45:29.932Z,95924.84
2023-10-23T22:50:22.625Z,95910.66
2023-10-23T22:55:16.593Z,95886.97
2023-10-23T23:05:21.816Z,95891.22
2023-10-23T23:15:29.231Z,95902.75
2023-10-23T23:20:26.666Z,95880.41
2023-10-23T23:25:27.060Z,95849.66
2023-10-23T23:35:27.358Z,95857.00
2023-10-23T23:40:19.431Z,95853.88
2023-10-23T23:45:13.465Z,95879.31
2023-10-23T23:50:09.744Z,95873.75
